Time;durP1;ratioP1;P1;durP2;ratioP2;P2;SDS_P1;SDS_P2;PMS_P1;PMS_P2;Temp;Humidity;BMP_temperature;BMP_pressure;BME280_temperature;BME280_humidity;BME280_pressure;Samples;Min_cycle;Max_cycle;Signal;HPM_P1;HPM_P2
2022/08/02 00:00:17;;;;;;;2.97;1.10;;;;;;;;;;4962444;28;20041;-82
2022/08/02 00:02:43;;;;;;;3.05;1.20;;;;;;;;;;4993270;28;20129;-82
2022/08/02 00:05:09;;;;;;;3.22;1.00;;;;;;;;;;4980156;28;20046;-82
2022/08/02 00:07:35;;;;;;;3.28;1.17;;;;;;;;;;4984330;28;20141;-82
2022/08/02 00:10:01;;;;;;;4.28;1.20;;;;;;;;;;4971011;28;20121;-82
2022/08/02 00:12:26;;;;;;;4.35;1.13;;;;;;;;;;4956403;28;20046;-82
2022/08/02 00:14:51;;;;;;;2.67;1.02;;;;;;;;;;4983937;28;22110;-82
2022/08/02 00:17:17;;;;;;;2.85;1.33;;;;;;;;;;4987518;28;20054;-83
2022/08/02 00:19:43;;;;;;;2.80;1.00;;;;;;;;;;4975074;28;20026;-82
2022/08/02 00:22:08;;;;;;;3.35;1.13;;;;;;;;;;4975358;28;20092;-82
2022/08/02 00:24:34;;;;;;;5.80;1.65;;;;;;;;;;4974183;28;20034;-82
2022/08/02 00:26:59;;;;;;;3.65;1.10;;;;;;;;;;4976759;28;20440;-82
2022/08/02 00:29:24;;;;;;;4.07;1.30;;;;;;;;;;4976910;28;20042;-83
2022/08/02 00:31:50;;;;;;;2.00;0.90;;;;;;;;;;4985081;28;20512;-83
2022/08/02 00:34:15;;;;;;;3.50;1.05;;;;;;;;;;4963403;28;20390;-82
2022/08/02 00:36:40;;;;;;;3.42;0.98;;;;;;;;;;4965433;28;20370;-83
2022/08/02 00:39:06;;;;;;;6.05;1.13;;;;;;;;;;4985778;28;20068;-82
2022/08/02 00:41:31;;;;;;;3.53;1.00;;;;;;;;;;4982997;28;20038;-82
2022/08/02 00:44:16;;;;;;;2.22;0.90;;;;;;;;;;4972535;28;20034;-82
2022/08/02 00:46:42;;;;;;;2.63;1.10;;;;;;;;;;4922181;29;20039;-83
2022/08/02 00:49:08;;;;;;;14.32;1.20;;;;;;;;;;4896592;29;20036;-82
2022/08/02 00:51:34;;;;;;;3.05;1.10;;;;;;;;;;4897116;29;20403;-83
2022/08/02 00:53:59;;;;;;;3.83;1.10;;;;;;;;;;4914737;29;20042;-83
2022/08/02 00:56:25;;;;;;;3.75;1.05;;;;;;;;;;4896648;29;20586;-83
2022/08/02 00:58:50;;;;;;;3.97;0.95;;;;;;;;;;4911528;29;20566;-82
2022/08/02 01:01:15;;;;;;;2.80;0.90;;;;;;;;;;4924431;29;20385;-82
2022/08/02 01:03:41;;;;;;;4.25;1.10;;;;;;;;;;4926761;29;20032;-83
2022/08/02 01:06:06;;;;;;;6.63;1.38;;;;;;;;;;4914062;29;20044;-82
2022/08/02 01:08:31;;;;;;;4.18;1.08;;;;;;;;;;4910167;29;20090;-82
2022/08/02 01:10:57;;;;;;;4.32;1.10;;;;;;;;;;4928248;29;20044;-83
2022/08/02 01:13:22;;;;;;;3.30;1.05;;;;;;;;;;4911943;29;20051;-83
2022/08/02 01:15:57;;;;;;;2.83;0.93;;;;;;;;;;4908420;29;20036;-82
2022/08/02 01:18:40;;;;;;;3.33;1.00;;;;;;;;;;4913013;29;20582;-82
2022/08/02 01:21:17;;;;;;;3.50;0.93;;;;;;;;;;4907777;29;20403;-82
2022/08/02 01:24:16;;;;;;;2.80;1.00;;;;;;;;;;4924841;28;20053;-82
2022/08/02 01:27:19;;;;;;;3.45;1.10;;;;;;;;;;4966169;28;20038;-82
2022/08/02 01:29:49;;;;;;;3.00;0.90;;;;;;;;;;4989348;28;20037;-83
2022/08/02 01:32:17;;;;;;;4.50;0.93;;;;;;;;;;4980371;28;20143;-82
2022/08/02 01:34:59;;;;;;;5.20;1.00;;;;;;;;;;4988431;28;20122;-82
2022/08/02 01:37:34;;;;;;;4.45;1.35;;;;;;;;;;4981065;28;20042;-81
2022/08/02 01:40:07;;;;;;;3.55;1.08;;;;;;;;;;4987683;28;20560;-82
2022/08/02 01:42:32;;;;;;;4.22;1.00;;;;;;;;;;4996824;28;20985;-82
2022/08/02 01:44:59;;;;;;;2.58;1.00;;;;;;;;;;4981435;28;20121;-82
2022/08/02 01:47:29;;;;;;;6.68;1.23;;;;;;;;;;4973807;28;20482;-82
2022/08/02 01:49:56;;;;;;;4.90;1.15;;;;;;;;;;4967609;28;20483;-82
2022/08/02 01:52:25;;;;;;;3.42;1.00;;;;;;;;;;4968574;28;20524;-82
2022/08/02 01:55:12;;;;;;;3.58;1.10;;;;;;;;;;4981582;28;20398;-82
2022/08/02 01:57:47;;;;;;;;;;;;;;;;;;4967595;28;20029;-81
2022/08/02 02:00:13;;;;;;;5.13;1.00;;;;;;;;;;4968537;28;19921;-81
2022/08/02 02:02:43;;;;;;;2.90;1.00;;;;;;;;;;4988955;28;20057;-81
2022/08/02 02:05:13;;;;;;;4.70;1.17;;;;;;;;;;4972095;28;20042;-82
2022/08/02 02:07:39;;;;;;;4.05;1.13;;;;;;;;;;4951235;28;20041;-81
2022/08/02 02:10:05;;;;;;;3.83;0.93;;;;;;;;;;4972567;28;20438;-82
2022/08/02 02:12:32;;;;;;;3.35;0.85;;;;;;;;;;4969800;28;20419;-82
2022/08/02 02:14:59;;;;;;;3.30;1.10;;;;;;;;;;4980754;28;20034;-81
2022/08/02 02:17:25;;;;;;;4.47;1.17;;;;;;;;;;4969113;28;20386;-81
2022/08/02 02:19:52;;;;;;;4.47;1.23;;;;;;;;;;4969600;28;20069;-82
2022/08/02 02:22:19;;;;;;;4.72;1.10;;;;;;;;;;4987157;28;20057;-81
2022/08/02 02:24:44;;;;;;;5.23;1.70;;;;;;;;;;4967378;28;20049;-82
2022/08/02 02:27:11;;;;;;;4.20;1.15;;;;;;;;;;4984035;28;20035;-82
2022/08/02 02:29:39;;;;;;;3.20;1.10;;;;;;;;;;4977322;28;20371;-82
2022/08/02 02:32:05;;;;;;;4.38;1.10;;;;;;;;;;4978246;28;20049;-82
2022/08/02 02:34:38;;;;;;;4.53;1.13;;;;;;;;;;4988748;28;20502;-82
2022/08/02 02:37:05;;;;;;;3.65;1.05;;;;;;;;;;4989094;28;20404;-81
2022/08/02 02:39:31;;;;;;;2.88;1.05;;;;;;;;;;4972330;28;20085;-82
2022/08/02 02:42:01;;;;;;;5.00;1.20;;;;;;;;;;4979252;28;20500;-83
2022/08/02 02:44:28;;;;;;;3.40;1.00;;;;;;;;;;4982250;28;20418;-82
2022/08/02 02:46:54;;;;;;;3.40;1.00;;;;;;;;;;4977041;28;20037;-82
2022/08/02 02:49:20;;;;;;;3.70;1.30;;;;;;;;;;4971091;28;20045;-84
2022/08/02 02:51:46;;;;;;;3.63;1.23;;;;;;;;;;4980864;28;20040;-82
2022/08/02 02:54:12;;;;;;;3.70;1.10;;;;;;;;;;4962897;28;20127;-82
2022/08/02 02:56:38;;;;;;;4.20;1.08;;;;;;;;;;4966080;28;20493;-82
2022/08/02 02:59:03;;;;;;;3.72;1.17;;;;;;;;;;4971473;28;20414;-81
2022/08/02 03:01:32;;;;;;;3.88;1.40;;;;;;;;;;4967060;28;20153;-82
2022/08/02 03:04:01;;;;;;;5.30;1.20;;;;;;;;;;4978253;28;20165;-82
2022/08/02 03:06:28;;;;;;;4.65;1.05;;;;;;;;;;4987974;28;20595;-81
2022/08/02 03:08:53;;;;;;;3.63;1.00;;;;;;;;;;4970798;28;20038;-82
2022/08/02 03:11:19;;;;;;;3.63;1.15;;;;;;;;;;4971513;28;20045;-81
2022/08/02 03:13:45;;;;;;;3.22;1.00;;;;;;;;;;4964654;28;20054;-81
2022/08/02 03:16:11;;;;;;;2.67;1.00;;;;;;;;;;4965901;28;20054;-80
2022/08/02 03:18:42;;;;;;;4.28;1.10;;;;;;;;;;4964310;28;20034;-80
2022/08/02 03:21:13;;;;;;;4.82;1.10;;;;;;;;;;4971394;28;20038;-80
2022/08/02 03:23:40;;;;;;;6.65;1.33;;;;;;;;;;4982892;28;20058;-80
2022/08/02 03:26:07;;;;;;;5.13;1.20;;;;;;;;;;4969208;28;20057;-80
2022/08/02 03:28:32;;;;;;;2.63;1.20;;;;;;;;;;4997637;28;20033;-80
2022/08/02 03:30:59;;;;;;;3.92;1.60;;;;;;;;;;4978794;28;20520;-81
2022/08/02 03:33:25;;;;;;;3.47;1.05;;;;;;;;;;4981847;28;20502;-80
2022/08/02 03:35:53;;;;;;;5.63;1.70;;;;;;;;;;4978737;28;20030;-81
2022/08/02 03:38:20;;;;;;;3.53;1.38;;;;;;;;;;4983029;28;20565;-80
2022/08/02 03:40:46;;;;;;;3.80;1.30;;;;;;;;;;4981412;28;20038;-80
2022/08/02 03:43:11;;;;;;;5.32;1.65;;;;;;;;;;4975628;28;20042;-80
2022/08/02 03:45:43;;;;;;;4.53;1.60;;;;;;;;;;4971545;28;20441;-81
2022/08/02 03:48:09;;;;;;;3.35;1.25;;;;;;;;;;4961944;28;20074;-81
2022/08/02 03:50:35;;;;;;;4.03;1.45;;;;;;;;;;4981762;28;20044;-81
2022/08/02 03:53:01;;;;;;;3.15;1.48;;;;;;;;;;4973139;28;20037;-81
2022/08/02 03:55:26;;;;;;;4.55;1.60;;;;;;;;;;4976179;28;20037;-81
2022/08/02 03:57:51;;;;;;;4.95;1.42;;;;;;;;;;4971441;28;20034;-82
2022/08/02 04:00:20;;;;;;;5.57;1.63;;;;;;;;;;4963151;28;20033;-82
2022/08/02 04:02:45;;;;;;;6.68;1.63;;;;;;;;;;4962906;28;20472;-81
2022/08/02 04:05:11;;;;;;;4.55;1.40;;;;;;;;;;4978137;28;20074;-81
2022/08/02 04:07:36;;;;;;;3.63;1.70;;;;;;;;;;4959014;28;20445;-82
2022/08/02 04:10:02;;;;;;;4.28;1.90;;;;;;;;;;4971229;28;20044;-82
2022/08/02 04:12:28;;;;;;;4.43;1.73;;;;;;;;;;4972716;28;20486;-82
2022/08/02 04:14:53;;;;;;;5.53;1.60;;;;;;;;;;4962270;28;20049;-82
2022/08/02 04:17:20;;;;;;;3.92;1.40;;;;;;;;;;4966113;28;20105;-82
2022/08/02 04:19:55;;;;;;;6.82;1.98;;;;;;;;;;4969047;28;20030;-82
2022/08/02 04:22:25;;;;;;;4.45;1.45;;;;;;;;;;4973373;28;20117;-82
2022/08/02 04:24:54;;;;;;;5.75;1.83;;;;;;;;;;4970428;28;20042;-81
2022/08/02 04:27:21;;;;;;;7.05;1.75;;;;;;;;;;4969634;28;20502;-82
2022/08/02 04:29:47;;;;;;;4.78;1.55;;;;;;;;;;4987765;28;20044;-82
2022/08/02 04:32:14;;;;;;;4.65;1.55;;;;;;;;;;4966095;28;20477;-82
2022/08/02 04:34:39;;;;;;;5.03;1.65;;;;;;;;;;4970078;28;20505;-82
2022/08/02 04:37:05;;;;;;;4.75;1.70;;;;;;;;;;4971099;28;20030;-83
2022/08/02 04:39:30;;;;;;;5.07;1.73;;;;;;;;;;4969872;28;20034;-83
2022/08/02 04:41:59;;;;;;;6.20;1.85;;;;;;;;;;4976387;28;20104;-83
2022/08/02 04:44:24;;;;;;;4.38;1.70;;;;;;;;;;4970692;28;20035;-83
2022/08/02 04:46:51;;;;;;;5.88;1.55;;;;;;;;;;4970086;28;20118;-82
2022/08/02 04:49:16;;;;;;;4.75;2.22;;;;;;;;;;4963654;28;20038;-81
2022/08/02 04:51:42;;;;;;;4.47;1.60;;;;;;;;;;4965347;28;20032;-82
2022/08/02 04:54:09;;;;;;;4.22;1.65;;;;;;;;;;4982468;28;20038;-82
2022/08/02 04:56:34;;;;;;;5.63;2.22;;;;;;;;;;4983378;28;20030;-82
2022/08/02 04:58:59;;;;;;;5.32;2.10;;;;;;;;;;4974999;28;20512;-80
2022/08/02 05:01:25;;;;;;;4.55;1.50;;;;;;;;;;4981514;28;20490;-81
2022/08/02 05:03:50;;;;;;;6.32;1.50;;;;;;;;;;4985681;28;20387;-81
2022/08/02 05:06:18;;;;;;;4.68;1.60;;;;;;;;;;4985592;28;20045;-76
2022/08/02 05:08:45;;;;;;;4.15;1.50;;;;;;;;;;4982079;28;20085;-77
2022/08/02 05:11:10;;;;;;;5.80;1.40;;;;;;;;;;4996002;28;20433;-77
2022/08/02 05:13:36;;;;;;;5.90;1.60;;;;;;;;;;4980043;28;20039;-77
2022/08/02 05:16:03;;;;;;;5.72;1.70;;;;;;;;;;4977543;28;20038;-77
2022/08/02 05:18:29;;;;;;;2.90;1.30;;;;;;;;;;5000204;28;20042;-77
2022/08/02 05:20:55;;;;;;;4.90;1.40;;;;;;;;;;4974876;28;20374;-77
2022/08/02 05:23:20;;;;;;;5.95;1.50;;;;;;;;;;4979504;28;20042;-77
2022/08/02 05:25:46;;;;;;;5.97;1.90;;;;;;;;;;4982973;28;20043;-77
2022/08/02 05:28:11;;;;;;;4.15;1.40;;;;;;;;;;4989574;28;20117;-77
2022/08/02 05:30:37;;;;;;;5.22;1.40;;;;;;;;;;4967274;28;20039;-77
2022/08/02 05:33:03;;;;;;;6.68;1.58;;;;;;;;;;4984940;28;20030;-77
2022/08/02 05:35:29;;;;;;;5.40;1.60;;;;;;;;;;4981422;28;20035;-78
2022/08/02 05:37:55;;;;;;;5.95;1.40;;;;;;;;;;4985187;28;20039;-78
2022/08/02 05:40:21;;;;;;;4.72;1.40;;;;;;;;;;4975846;28;20042;-78
2022/08/02 05:42:46;;;;;;;8.52;1.60;;;;;;;;;;4984900;28;20040;-78
2022/08/02 05:45:14;;;;;;;4.18;1.55;;;;;;;;;;4982944;28;20486;-78
2022/08/02 05:47:39;;;;;;;5.63;1.42;;;;;;;;;;4978608;28;20561;-78
2022/08/02 05:50:06;;;;;;;5.03;1.40;;;;;;;;;;4973640;28;20035;-76
2022/08/02 05:53:09;;;;;;;3.40;1.20;;;;;;;;;;4963739;28;20035;-78
2022/08/02 05:55:41;;;;;;;5.68;1.58;;;;;;;;;;4978742;28;20073;-78
2022/08/02 05:58:15;;;;;;;8.85;1.65;;;;;;;;;;4976163;28;20046;-78
2022/08/02 06:00:44;;;;;;;6.07;1.52;;;;;;;;;;4956619;28;20407;-77
2022/08/02 06:03:44;;;;;;;4.78;1.90;;;;;;;;;;4951678;28;20041;-77
2022/08/02 06:06:13;;;;;;;6.22;1.60;;;;;;;;;;4966905;28;20038;-77
2022/08/02 06:08:45;;;;;;;5.28;1.83;;;;;;;;;;4981047;28;20089;-77
2022/08/02 06:11:14;;;;;;;3.78;1.40;;;;;;;;;;4972301;28;20049;-78
2022/08/02 06:13:44;;;;;;;6.90;1.42;;;;;;;;;;4973172;28;20046;-77
2022/08/02 06:16:09;;;;;;;3.08;1.30;;;;;;;;;;4978997;28;20121;-77
2022/08/02 06:18:35;;;;;;;4.13;1.45;;;;;;;;;;4981153;28;20113;-77
2022/08/02 06:21:03;;;;;;;4.72;1.48;;;;;;;;;;4972366;28;20046;-77
2022/08/02 06:23:29;;;;;;;5.18;1.40;;;;;;;;;;4977819;28;20046;-77
2022/08/02 06:25:59;;;;;;;6.95;1.60;;;;;;;;;;4976257;28;20035;-78
2022/08/02 06:28:25;;;;;;;6.70;1.45;;;;;;;;;;4979978;28;20046;-78
2022/08/02 06:30:50;;;;;;;3.92;1.10;;;;;;;;;;4973228;28;20035;-77
2022/08/02 06:33:17;;;;;;;5.22;1.20;;;;;;;;;;4976579;28;20049;-78
2022/08/02 06:36:15;;;;;;;3.40;1.02;;;;;;;;;;4974563;28;20477;-78
2022/08/02 06:38:45;;;;;;;4.70;1.20;;;;;;;;;;4971282;28;20035;-78
2022/08/02 06:41:14;;;;;;;4.93;1.00;;;;;;;;;;4976610;28;20035;-77
2022/08/02 06:43:48;;;;;;;7.38;1.23;;;;;;;;;;4988986;28;20034;-77
2022/08/02 06:46:13;;;;;;;3.75;1.00;;;;;;;;;;4969729;28;20518;-77
2022/08/02 06:48:39;;;;;;;5.13;1.20;;;;;;;;;;4957909;28;20049;-77
2022/08/02 06:51:05;;;;;;;4.82;0.90;;;;;;;;;;4969384;28;20046;-77
2022/08/02 06:53:30;;;;;;;4.78;1.00;;;;;;;;;;4982540;28;20053;-78
2022/08/02 06:55:56;;;;;;;4.38;0.90;;;;;;;;;;4968561;28;20042;-78
2022/08/02 06:58:23;;;;;;;3.58;0.90;;;;;;;;;;4973986;28;20033;-78
2022/08/02 07:00:49;;;;;;;7.15;1.15;;;;;;;;;;4958697;28;20117;-77
2022/08/02 07:03:14;;;;;;;3.92;1.02;;;;;;;;;;4978094;28;20034;-78
2022/08/02 07:05:41;;;;;;;4.53;1.08;;;;;;;;;;4963517;28;20726;-78
2022/08/02 07:08:06;;;;;;;7.05;1.30;;;;;;;;;;4969800;28;20050;-78
2022/08/02 07:10:32;;;;;;;4.35;0.90;;;;;;;;;;4980086;28;20042;-78
2022/08/02 07:12:58;;;;;;;4.90;1.10;;;;;;;;;;4979562;28;20515;-77
2022/08/02 07:15:24;;;;;;;5.45;0.82;;;;;;;;;;4978882;28;20070;-77
2022/08/02 07:17:49;;;;;;;4.43;1.20;;;;;;;;;;4974181;28;20062;-76
2022/08/02 07:20:14;;;;;;;4.47;0.90;;;;;;;;;;4974170;28;20039;-77
2022/08/02 07:22:41;;;;;;;5.90;1.65;;;;;;;;;;4965107;28;20113;-77
2022/08/02 07:25:08;;;;;;;3.57;0.90;;;;;;;;;;4982369;28;20530;-76
2022/08/02 07:27:33;;;;;;;3.10;0.95;;;;;;;;;;4975210;28;20065;-77
2022/08/02 07:30:02;;;;;;;5.15;1.13;;;;;;;;;;4980931;28;20058;-77
2022/08/02 07:32:29;;;;;;;4.60;0.93;;;;;;;;;;4977643;28;20452;-77
2022/08/02 07:34:55;;;;;;;4.00;0.60;;;;;;;;;;4968195;28;21180;-77
2022/08/02 07:37:22;;;;;;;3.00;0.73;;;;;;;;;;4961490;28;20038;-77
2022/08/02 07:39:47;;;;;;;3.85;0.95;;;;;;;;;;4971262;28;20053;-77
2022/08/02 07:42:14;;;;;;;3.63;0.90;;;;;;;;;;4995281;28;20039;-84
2022/08/02 07:44:41;;;;;;;3.75;0.70;;;;;;;;;;4967610;28;20522;-84
2022/08/02 07:47:06;;;;;;;4.90;1.00;;;;;;;;;;4975563;28;20042;-86
2022/08/02 07:49:32;;;;;;;3.55;0.80;;;;;;;;;;4970402;28;20390;-86
2022/08/02 07:51:57;;;;;;;4.28;0.80;;;;;;;;;;4968188;28;20041;-86
2022/08/02 07:54:24;;;;;;;4.60;1.08;;;;;;;;;;4976219;28;21751;-84
2022/08/02 07:56:50;;;;;;;3.10;0.77;;;;;;;;;;4969627;28;20157;-85
2022/08/02 07:59:16;;;;;;;2.10;0.70;;;;;;;;;;4974277;28;20058;-85
2022/08/02 08:01:41;;;;;;;3.45;0.80;;;;;;;;;;4968037;28;20590;-86
2022/08/02 08:04:07;;;;;;;3.10;0.68;;;;;;;;;;4971566;28;20084;-83
2022/08/02 08:06:35;;;;;;;3.00;0.77;;;;;;;;;;4961750;28;20041;-85
2022/08/02 08:09:01;;;;;;;2.58;0.90;;;;;;;;;;4967344;28;20189;-86
2022/08/02 08:11:27;;;;;;;5.97;0.90;;;;;;;;;;4973446;28;20105;-85
2022/08/02 08:13:53;;;;;;;3.28;1.02;;;;;;;;;;4970943;28;20050;-85
2022/08/02 08:16:18;;;;;;;4.63;0.98;;;;;;;;;;4974124;28;20027;-85
2022/08/02 08:18:47;;;;;;;2.85;0.80;;;;;;;;;;4975594;28;20127;-87
2022/08/02 08:21:12;;;;;;;3.95;1.10;;;;;;;;;;4977844;28;20524;-85
2022/08/02 08:23:38;;;;;;;4.78;0.90;;;;;;;;;;4979465;28;20494;-86
2022/08/02 08:26:04;;;;;;;3.45;1.17;;;;;;;;;;4965858;28;20041;-85
2022/08/02 08:28:29;;;;;;;2.70;0.70;;;;;;;;;;4981417;28;20062;-86
2022/08/02 08:30:55;;;;;;;6.07;0.85;;;;;;;;;;4981227;28;20051;-86
2022/08/02 08:33:20;;;;;;;2.40;0.77;;;;;;;;;;4974941;28;20042;-87
2022/08/02 08:35:46;;;;;;;2.55;0.80;;;;;;;;;;4983063;28;20093;-86
2022/08/02 08:38:11;;;;;;;3.75;0.93;;;;;;;;;;4982638;28;20125;-85
2022/08/02 08:40:37;;;;;;;3.95;1.13;;;;;;;;;;4977915;28;20089;-86
2022/08/02 08:43:04;;;;;;;2.80;0.90;;;;;;;;;;4975056;28;20066;-86
2022/08/02 08:45:29;;;;;;;3.97;0.80;;;;;;;;;;4975886;28;20049;-85
2022/08/02 08:48:07;;;;;;;3.20;0.90;;;;;;;;;;4971085;28;20046;-86
2022/08/02 08:50:35;;;;;;;4.75;0.93;;;;;;;;;;4973551;28;20528;-87
2022/08/02 08:53:05;;;;;;;2.92;0.70;;;;;;;;;;4976015;28;20109;-86
2022/08/02 08:55:34;;;;;;;4.75;0.80;;;;;;;;;;4971413;28;20496;-86
2022/08/02 08:58:01;;;;;;;3.03;0.75;;;;;;;;;;4963888;28;20506;-86
2022/08/02 09:00:29;;;;;;;4.45;0.80;;;;;;;;;;4973329;28;20105;-86
2022/08/02 09:02:54;;;;;;;3.00;0.60;;;;;;;;;;4986011;28;20512;-86
2022/08/02 09:05:21;;;;;;;5.30;1.00;;;;;;;;;;4974860;28;20130;-86
2022/08/02 09:07:49;;;;;;;3.33;0.70;;;;;;;;;;4969807;28;20049;-86
2022/08/02 09:10:36;;;;;;;1.67;0.40;;;;;;;;;;4970668;28;20039;-86
2022/08/02 09:13:36;;;;;;;3.20;0.60;;;;;;;;;;4989279;28;20497;-86
2022/08/02 09:16:04;;;;;;;2.58;0.40;;;;;;;;;;4982587;28;20114;-85
2022/08/02 09:18:43;;;;;;;2.83;0.65;;;;;;;;;;4979899;28;20053;-85
2022/08/02 09:21:09;;;;;;;2.78;0.50;;;;;;;;;;4965358;28;20034;-84
2022/08/02 09:23:46;;;;;;;2.97;0.67;;;;;;;;;;4973586;28;20034;-85
2022/08/02 09:26:17;;;;;;;2.88;0.60;;;;;;;;;;4988864;28;20110;-85
2022/08/02 09:28:45;;;;;;;2.35;0.60;;;;;;;;;;4968287;28;20042;-85
2022/08/02 09:31:23;;;;;;;2.47;0.52;;;;;;;;;;4947159;28;20034;-84
2022/08/02 09:33:57;;;;;;;9.00;0.60;;;;;;;;;;4966827;28;20038;-84
2022/08/02 09:36:26;;;;;;;3.38;0.70;;;;;;;;;;4964086;28;20125;-84
2022/08/02 09:39:09;;;;;;;2.60;0.50;;;;;;;;;;4964286;28;20027;-86
2022/08/02 09:41:40;;;;;;;2.55;0.40;;;;;;;;;;4951979;28;20039;-84
2022/08/02 09:44:10;;;;;;;5.25;0.80;;;;;;;;;;4950973;28;20082;-84
2022/08/02 09:46:39;;;;;;;3.75;0.70;;;;;;;;;;4958322;28;20041;-85
2022/08/02 09:49:07;;;;;;;3.72;1.00;;;;;;;;;;4974353;28;20121;-86
2022/08/02 09:51:37;;;;;;;2.50;0.60;;;;;;;;;;4989139;28;20030;-84
2022/08/02 09:54:24;;;;;;;2.63;0.60;;;;;;;;;;4973446;28;20037;-84
2022/08/02 09:56:52;;;;;;;2.22;0.75;;;;;;;;;;4954436;28;20623;-84
2022/08/02 09:59:28;;;;;;;3.97;0.80;;;;;;;;;;4972253;28;20216;-84
2022/08/02 10:01:55;;;;;;;;;;;;;;;;;;4954400;28;20066;-86
2022/08/02 10:07:31;;;;;;;2.55;0.52;;;;;;;;;;4978942;28;20559;-85
2022/08/02 10:09:56;;;;;;;2.08;0.50;;;;;;;;;;4948969;28;20038;-86
2022/08/02 10:12:22;;;;;;;5.80;1.07;;;;;;;;;;4985658;28;20522;-85
2022/08/02 10:14:50;;;;;;;2.83;0.57;;;;;;;;;;4981015;28;20482;-84
2022/08/02 10:17:16;;;;;;;2.70;0.50;;;;;;;;;;4973920;28;20042;-86
2022/08/02 10:19:41;;;;;;;2.67;0.60;;;;;;;;;;4971930;28;20406;-84
2022/08/02 10:22:12;;;;;;;3.63;0.60;;;;;;;;;;4970580;28;20030;-84
2022/08/02 10:24:38;;;;;;;2.75;0.60;;;;;;;;;;4983205;28;20084;-84
2022/08/02 10:27:05;;;;;;;2.97;0.80;;;;;;;;;;4974399;28;20397;-84
2022/08/02 10:29:36;;;;;;;2.65;0.50;;;;;;;;;;4983027;28;20092;-84
2022/08/02 10:32:06;;;;;;;1.80;0.50;;;;;;;;;;4963302;28;20038;-84
2022/08/02 10:34:37;;;;;;;2.42;0.50;;;;;;;;;;4964265;28;20042;-84
2022/08/02 10:37:04;;;;;;;1.90;0.70;;;;;;;;;;4997025;28;20045;-84
2022/08/02 10:39:41;;;;;;;2.60;0.70;;;;;;;;;;4983245;28;20489;-84
2022/08/02 10:42:07;;;;;;;5.32;0.90;;;;;;;;;;4955742;28;20116;-84
2022/08/02 10:44:33;;;;;;;2.60;0.50;;;;;;;;;;4948460;28;20030;-83
2022/08/02 10:47:14;;;;;;;2.88;0.63;;;;;;;;;;4981023;28;20049;-82
2022/08/02 10:49:54;;;;;;;3.10;0.60;;;;;;;;;;4983738;28;20482;-82
2022/08/02 10:52:27;;;;;;;2.90;0.68;;;;;;;;;;4966622;28;20062;-83
2022/08/02 10:55:08;;;;;;;2.03;0.50;;;;;;;;;;4972238;28;20453;-83
2022/08/02 10:57:35;;;;;;;2.63;0.60;;;;;;;;;;4961096;28;20042;-84
2022/08/02 11:00:11;;;;;;;;;;;;;;;;;;4970293;28;20041;-84
2022/08/02 11:02:45;;;;;;;3.28;0.88;;;;;;;;;;4970907;28;19913;-85
2022/08/02 11:05:33;;;;;;;2.65;0.60;;;;;;;;;;4978581;28;20065;-85
2022/08/02 11:08:17;;;;;;;3.05;0.63;;;;;;;;;;4970261;28;20391;-83
2022/08/02 11:10:43;;;;;;;4.25;0.57;;;;;;;;;;4973507;28;20038;-85
2022/08/02 11:13:13;;;;;;;1.87;0.30;;;;;;;;;;4960701;28;20049;-85
2022/08/02 11:16:03;;;;;;;2.85;0.50;;;;;;;;;;4972682;28;20044;-85
2022/08/02 11:18:50;;;;;;;1.90;0.50;;;;;;;;;;4965634;28;20091;-85
2022/08/02 11:21:27;;;;;;;2.17;0.45;;;;;;;;;;4983965;28;20121;-85
2022/08/02 11:23:53;;;;;;;3.10;0.68;;;;;;;;;;4972019;28;20046;-84
2022/08/02 11:26:42;;;;;;;2.15;0.60;;;;;;;;;;4981055;28;20525;-84
2022/08/02 11:29:07;;;;;;;3.85;0.50;;;;;;;;;;4954588;28;20490;-85
2022/08/02 11:31:39;;;;;;;2.87;0.60;;;;;;;;;;4964600;28;20040;-85
2022/08/02 11:34:05;;;;;;;2.22;0.40;;;;;;;;;;4967606;28;20432;-85
2022/08/02 11:36:30;;;;;;;2.58;0.50;;;;;;;;;;4969743;28;20042;-85
2022/08/02 11:39:13;;;;;;;2.23;0.57;;;;;;;;;;4980290;28;20044;-85
2022/08/02 11:41:38;;;;;;;2.05;0.60;;;;;;;;;;4977609;28;20084;-85
2022/08/02 11:44:04;;;;;;;1.83;0.47;;;;;;;;;;4972698;28;20465;-85
2022/08/02 11:46:30;;;;;;;2.07;0.60;;;;;;;;;;4964840;28;20088;-86
2022/08/02 11:48:55;;;;;;;3.60;0.60;;;;;;;;;;4964677;28;20173;-84
2022/08/02 11:51:20;;;;;;;2.53;0.60;;;;;;;;;;4972754;28;20072;-86
2022/08/02 11:53:56;;;;;;;3.53;0.67;;;;;;;;;;4969106;28;20033;-84
2022/08/02 11:56:28;;;;;;;2.50;0.60;;;;;;;;;;4980800;28;20142;-86
2022/08/02 11:59:07;;;;;;;2.35;0.60;;;;;;;;;;4963724;28;20034;-84
2022/08/02 12:01:36;;;;;;;3.22;0.82;;;;;;;;;;4971932;28;20032;-79
2022/08/02 12:04:03;;;;;;;3.00;0.60;;;;;;;;;;4970470;28;20046;-85
2022/08/02 12:06:30;;;;;;;2.30;0.60;;;;;;;;;;4975297;28;20057;-85
2022/08/02 12:09:10;;;;;;;2.70;0.50;;;;;;;;;;4961006;28;20531;-85
2022/08/02 12:11:36;;;;;;;5.18;0.68;;;;;;;;;;4962363;28;20588;-84
2022/08/02 12:14:03;;;;;;;2.17;0.65;;;;;;;;;;4964645;28;20051;-84
2022/08/02 12:19:28;;;;;;;2.45;0.70;;;;;;;;;;4959567;28;20052;-84
2022/08/02 12:22:35;;;;;;;2.50;0.57;;;;;;;;;;4945809;28;20027;-84
2022/08/02 12:25:20;;;;;;;1.98;0.75;;;;;;;;;;4952855;28;20195;-85
2022/08/02 12:27:46;;;;;;;3.72;0.75;;;;;;;;;;4951602;28;20491;-85
2022/08/02 12:30:18;;;;;;;3.00;0.90;;;;;;;;;;4949577;28;20046;-84
2022/08/02 12:32:44;;;;;;;2.53;0.90;;;;;;;;;;4952686;28;20167;-84
2022/08/02 12:35:15;;;;;;;5.88;1.48;;;;;;;;;;4942493;28;20098;-85
2022/08/02 12:37:43;;;;;;;3.90;0.73;;;;;;;;;;4941439;28;20039;-84
2022/08/02 12:40:32;;;;;;;2.88;0.80;;;;;;;;;;4950263;28;20039;-84
2022/08/02 12:43:00;;;;;;;1.33;0.60;;;;;;;;;;4967477;28;20042;-83
2022/08/02 12:45:28;;;;;;;2.28;0.68;;;;;;;;;;4950038;28;20075;-84
2022/08/02 12:47:56;;;;;;;1.58;0.70;;;;;;;;;;4972875;28;20035;-84
2022/08/02 12:50:30;;;;;;;3.28;0.93;;;;;;;;;;4949526;28;20559;-84
2022/08/02 12:53:11;;;;;;;2.75;0.80;;;;;;;;;;4952116;28;20499;-84
2022/08/02 12:55:47;;;;;;;2.67;0.82;;;;;;;;;;4949391;28;20050;-84
2022/08/02 12:58:13;;;;;;;4.78;0.95;;;;;;;;;;4933749;28;20073;-83
2022/08/02 13:00:39;;;;;;;4.78;1.00;;;;;;;;;;4949821;28;20031;-83
2022/08/02 13:03:05;;;;;;;3.10;0.70;;;;;;;;;;4948734;28;20042;-84
2022/08/02 13:05:31;;;;;;;2.50;0.80;;;;;;;;;;4954323;28;20179;-83
2022/08/02 13:07:57;;;;;;;2.88;1.13;;;;;;;;;;4963212;28;20465;-83
2022/08/02 13:10:26;;;;;;;2.50;0.90;;;;;;;;;;4954857;28;20039;-84
2022/08/02 13:12:51;;;;;;;2.90;0.88;;;;;;;;;;4946559;28;20031;-83
2022/08/02 13:15:17;;;;;;;4.10;0.80;;;;;;;;;;4946899;28;20045;-84
2022/08/02 13:17:43;;;;;;;3.38;0.98;;;;;;;;;;4970886;28;20047;-83
2022/08/02 13:20:13;;;;;;;2.25;1.00;;;;;;;;;;4970590;28;20045;-84
2022/08/02 13:22:39;;;;;;;2.53;0.90;;;;;;;;;;4982020;28;20454;-84
2022/08/02 13:25:05;;;;;;;1.95;0.73;;;;;;;;;;4977887;28;20063;-84
2022/08/02 13:27:31;;;;;;;4.03;1.00;;;;;;;;;;4978181;28;20555;-84
2022/08/02 13:29:57;;;;;;;3.03;0.88;;;;;;;;;;4968780;28;20064;-83
2022/08/02 13:32:24;;;;;;;2.35;0.77;;;;;;;;;;4960310;28;20042;-84
2022/08/02 13:34:50;;;;;;;4.03;0.90;;;;;;;;;;4971303;28;20038;-85
2022/08/02 13:37:17;;;;;;;4.50;0.70;;;;;;;;;;4961586;28;20029;-84
2022/08/02 13:39:42;;;;;;;3.05;0.98;;;;;;;;;;4982250;28;20060;-84
2022/08/02 13:42:08;;;;;;;3.67;0.82;;;;;;;;;;4981081;28;20062;-84
2022/08/02 13:44:34;;;;;;;3.63;0.70;;;;;;;;;;4973925;28;20097;-84
2022/08/02 13:47:01;;;;;;;3.90;0.90;;;;;;;;;;4955048;28;20038;-84
2022/08/02 13:49:26;;;;;;;2.85;0.82;;;;;;;;;;4965195;28;20516;-84
2022/08/02 13:51:52;;;;;;;1.95;0.93;;;;;;;;;;4989705;28;20038;-83
2022/08/02 13:54:18;;;;;;;2.67;1.05;;;;;;;;;;4973527;28;20035;-84
2022/08/02 13:56:45;;;;;;;3.80;0.98;;;;;;;;;;4971086;28;20038;-84
2022/08/02 13:59:11;;;;;;;2.53;0.90;;;;;;;;;;4977772;28;20074;-84
2022/08/02 14:01:36;;;;;;;4.05;1.00;;;;;;;;;;4958626;28;20027;-83
2022/08/02 14:04:02;;;;;;;3.20;0.80;;;;;;;;;;4982566;28;20042;-83
2022/08/02 14:06:27;;;;;;;4.25;1.08;;;;;;;;;;4981337;28;20093;-84
2022/08/02 14:08:53;;;;;;;2.90;0.88;;;;;;;;;;4965374;28;20078;-84
2022/08/02 14:11:18;;;;;;;2.60;0.80;;;;;;;;;;4964783;28;20062;-84
2022/08/02 14:13:44;;;;;;;3.67;1.10;;;;;;;;;;4967697;28;20490;-84
2022/08/02 14:16:09;;;;;;;4.68;1.30;;;;;;;;;;4964145;28;20474;-83
2022/08/02 14:18:36;;;;;;;3.65;0.80;;;;;;;;;;4971091;28;20041;-84
2022/08/02 14:21:02;;;;;;;3.63;0.80;;;;;;;;;;4980321;28;20038;-84
2022/08/02 14:23:29;;;;;;;2.60;1.08;;;;;;;;;;4982524;28;20037;-83
2022/08/02 14:25:58;;;;;;;5.22;1.48;;;;;;;;;;4966349;28;20233;-84
2022/08/02 14:28:23;;;;;;;2.00;0.77;;;;;;;;;;4980913;28;20038;-85
2022/08/02 14:30:49;;;;;;;2.65;0.90;;;;;;;;;;4972797;28;20510;-85
2022/08/02 14:33:14;;;;;;;2.67;0.88;;;;;;;;;;4966530;28;20502;-85
2022/08/02 14:35:40;;;;;;;4.32;1.10;;;;;;;;;;4995346;28;20050;-85
2022/08/02 14:38:05;;;;;;;3.45;0.90;;;;;;;;;;4976044;28;20046;-84
2022/08/02 14:40:31;;;;;;;2.95;0.90;;;;;;;;;;4955520;28;20584;-85
2022/08/02 14:42:57;;;;;;;4.68;1.00;;;;;;;;;;4960026;28;20074;-85
2022/08/02 14:45:27;;;;;;;3.95;0.90;;;;;;;;;;4978710;28;20082;-84
2022/08/02 14:47:54;;;;;;;2.88;0.77;;;;;;;;;;4972400;28;20064;-85
2022/08/02 14:50:21;;;;;;;4.45;0.98;;;;;;;;;;4979778;28;20411;-84
2022/08/02 14:52:48;;;;;;;2.25;0.80;;;;;;;;;;4972279;28;20039;-85
2022/08/02 14:55:15;;;;;;;2.80;1.00;;;;;;;;;;4970672;28;20093;-85
2022/08/02 14:57:41;;;;;;;4.47;0.95;;;;;;;;;;4968996;28;20030;-83